createdAt,value
2017-07-26T00:01:48.665Z,6.93
2017-07-26T00:04:16.798Z,8.10
2017-07-26T00:06:44.966Z,7.50
2017-07-26T00:09:13.104Z,8.07
2017-07-26T00:11:41.236Z,8.67
2017-07-26T00:14:09.406Z,7.83
2017-07-26T00:16:37.535Z,8.27
2017-07-26T00:19:05.681Z,7.77
2017-07-26T00:21:33.803Z,8.00
2017-07-26T00:24:01.947Z,8.70
2017-07-26T00:26:30.819Z,7.70
2017-07-26T00:28:59.908Z,8.20
2017-07-26T00:31:28.109Z,9.10
2017-07-26T00:33:56.230Z,8.80
2017-07-26T00:36:24.388Z,9.67
2017-07-26T00:38:52.537Z,8.27
2017-07-26T00:41:20.744Z,8.70
2017-07-26T00:43:48.868Z,8.57
2017-07-26T00:46:16.996Z,7.80
2017-07-26T00:48:45.154Z,8.27
2017-07-26T00:51:14.043Z,7.80
2017-07-26T00:53:42.208Z,8.10
2017-07-26T00:56:10.351Z,7.70
2017-07-26T00:58:38.501Z,7.63
2017-07-26T01:01:06.669Z,8.33
2017-07-26T01:03:34.785Z,7.80
2017-07-26T01:06:02.926Z,7.43
2017-07-26T01:08:31.067Z,9.00
2017-07-26T01:10:59.275Z,9.60
2017-07-26T01:13:27.404Z,9.47
2017-07-26T01:15:55.582Z,8.50
2017-07-26T01:18:23.732Z,8.30
2017-07-26T01:20:52.656Z,9.50
2017-07-26T01:23:20.930Z,9.30
2017-07-26T01:25:49.054Z,9.40
2017-07-26T01:28:17.198Z,8.80
2017-07-26T01:30:45.456Z,9.37
2017-07-26T01:33:13.639Z,9.37
2017-07-26T01:35:41.816Z,8.97
2017-07-26T01:38:10.730Z,9.83
2017-07-26T01:40:38.904Z,8.53
2017-07-26T01:43:07.030Z,8.20
2017-07-26T01:45:35.173Z,9.80
2017-07-26T01:48:03.346Z,8.90
2017-07-26T01:50:31.491Z,9.00
2017-07-26T01:52:59.629Z,8.67
2017-07-26T01:55:27.756Z,9.43
2017-07-26T01:57:55.959Z,10.13
2017-07-26T02:00:24.882Z,8.77
2017-07-26T02:02:53.016Z,10.40
2017-07-26T02:05:21.168Z,10.10
2017-07-26T02:07:49.322Z,9.03
2017-07-26T02:10:17.488Z,10.50
2017-07-26T02:12:45.644Z,10.00
2017-07-26T02:15:13.838Z,10.30
2017-07-26T02:17:41.958Z,9.90
2017-07-26T02:20:10.159Z,9.77
2017-07-26T02:22:38.355Z,10.00
2017-07-26T02:25:06.696Z,8.97
2017-07-26T02:27:34.890Z,9.10
2017-07-26T02:30:03.086Z,10.23
2017-07-26T02:32:31.271Z,10.40
2017-07-26T02:34:59.471Z,9.37
2017-07-26T02:37:27.709Z,9.87
2017-07-26T02:39:55.980Z,10.20
2017-07-26T02:42:24.151Z,9.20
2017-07-26T02:44:52.293Z,9.93
2017-07-26T02:47:20.446Z,8.87
2017-07-26T02:49:48.669Z,8.97
2017-07-26T02:52:16.843Z,8.93
2017-07-26T02:54:45.020Z,8.00
2017-07-26T02:57:13.191Z,8.97
2017-07-26T02:59:42.156Z,7.80
2017-07-26T03:02:11.072Z,8.37
2017-07-26T03:04:39.345Z,9.20
2017-07-26T03:07:08.260Z,9.40
2017-07-26T03:09:37.232Z,9.50
2017-07-26T03:12:05.426Z,8.50
2017-07-26T03:14:33.616Z,8.50
2017-07-26T03:17:01.762Z,8.00
2017-07-26T03:19:29.932Z,8.27
2017-07-26T03:21:58.110Z,7.13
2017-07-26T03:24:26.285Z,7.70
2017-07-26T03:26:54.509Z,8.73
2017-07-26T03:29:22.755Z,9.00
2017-07-26T03:31:50.935Z,9.83
2017-07-26T03:34:19.100Z,9.47
2017-07-26T03:36:47.307Z,9.80
2017-07-26T03:39:15.428Z,9.67
2017-07-26T03:41:43.549Z,8.33
2017-07-26T03:44:11.725Z,9.60
2017-07-26T03:46:39.899Z,8.93
2017-07-26T03:49:08.042Z,8.50
2017-07-26T03:51:36.277Z,9.17
2017-07-26T03:54:04.405Z,9.40
2017-07-26T03:56:32.521Z,9.00
2017-07-26T03:59:00.673Z,9.23
2017-07-26T04:01:28.822Z,9.60
2017-07-26T04:03:56.944Z,8.93
2017-07-26T04:06:25.113Z,8.40
2017-07-26T04:08:54.110Z,8.90
2017-07-26T04:11:22.287Z,8.00
2017-07-26T04:13:50.463Z,9.20
2017-07-26T04:16:18.589Z,8.30
2017-07-26T04:18:46.738Z,8.23
2017-07-26T04:21:15.597Z,8.30
2017-07-26T04:23:43.770Z,9.30
2017-07-26T04:26:11.898Z,8.20
2017-07-26T04:28:40.120Z,8.97
2017-07-26T04:31:08.342Z,7.87
2017-07-26T04:33:36.477Z,8.77
2017-07-26T04:36:04.620Z,8.30
2017-07-26T04:38:32.777Z,8.13
2017-07-26T04:41:00.954Z,8.50
2017-07-26T04:43:29.090Z,8.57
2017-07-26T04:45:57.233Z,8.83
2017-07-26T04:48:25.351Z,8.07
2017-07-26T04:50:53.502Z,8.20
2017-07-26T04:53:21.634Z,7.10
2017-07-26T04:55:49.769Z,8.17
2017-07-26T04:58:17.986Z,7.67
2017-07-26T05:00:46.121Z,8.13
2017-07-26T05:03:14.362Z,7.57
2017-07-26T05:05:42.575Z,7.97
2017-07-26T05:08:10.755Z,8.43
2017-07-26T05:10:38.956Z,7.67
2017-07-26T05:13:07.103Z,8.43
2017-07-26T05:15:35.317Z,8.17
2017-07-26T05:18:03.499Z,8.30
2017-07-26T05:20:31.627Z,7.67
2017-07-26T05:22:59.763Z,7.77
2017-07-26T05:25:27.926Z,7.70
2017-07-26T05:27:56.071Z,8.00
2017-07-26T05:30:24.186Z,7.77
2017-07-26T05:32:52.342Z,9.27
2017-07-26T05:35:20.452Z,7.90
2017-07-26T05:37:48.590Z,6.60
2017-07-26T05:40:17.496Z,7.63
2017-07-26T05:42:45.601Z,7.83
2017-07-26T05:45:13.739Z,8.33
2017-07-26T05:47:41.884Z,7.90
2017-07-26T05:50:10.781Z,7.90
2017-07-26T05:52:38.918Z,8.27
2017-07-26T05:55:07.059Z,8.30
2017-07-26T05:57:35.956Z,8.13
2017-07-26T06:00:04.109Z,7.40
2017-07-26T06:02:32.219Z,6.93
2017-07-26T06:05:00.377Z,8.40
2017-07-26T06:07:28.523Z,7.90
2017-07-26T06:09:56.649Z,7.93
2017-07-26T06:12:24.798Z,7.70
2017-07-26T06:14:52.998Z,7.60
2017-07-26T06:17:22.053Z,7.10
2017-07-26T06:19:50.963Z,7.53
2017-07-26T06:22:19.136Z,7.70
2017-07-26T06:24:47.283Z,8.03
2017-07-26T06:27:15.431Z,7.10
2017-07-26T06:29:43.606Z,7.10
2017-07-26T06:32:11.772Z,7.10
2017-07-26T06:34:39.915Z,8.30
2017-07-26T06:37:08.054Z,9.70
2017-07-26T06:39:36.209Z,10.27
2017-07-26T06:42:04.371Z,8.00
2017-07-26T06:44:32.516Z,6.73
2017-07-26T06:47:01.425Z,7.23
2017-07-26T06:49:29.556Z,7.63
2017-07-26T06:51:57.709Z,7.93
2017-07-26T06:54:25.836Z,6.67
2017-07-26T06:56:53.957Z,6.67
2017-07-26T06:59:22.106Z,7.10
2017-07-26T07:01:50.219Z,6.93
2017-07-26T07:04:19.120Z,7.63
2017-07-26T07:06:47.288Z,7.20
2017-07-26T07:09:15.501Z,6.87
2017-07-26T07:11:43.655Z,7.37
2017-07-26T07:14:11.814Z,6.93
2017-07-26T07:16:40.628Z,6.87
2017-07-26T07:19:09.369Z,7.77
2017-07-26T07:21:37.731Z,6.13
2017-07-26T07:24:05.850Z,6.57
2017-07-26T07:26:34.071Z,6.63
2017-07-26T07:29:02.211Z,7.03
2017-07-26T07:31:30.341Z,6.10
2017-07-26T07:33:58.585Z,6.30
2017-07-26T07:36:27.501Z,6.80
2017-07-26T07:38:55.671Z,6.63
2017-07-26T07:41:23.790Z,6.60
2017-07-26T07:43:51.952Z,6.57
2017-07-26T07:46:20.077Z,6.60
2017-07-26T07:48:48.203Z,5.90
2017-07-26T07:51:16.369Z,7.13
2017-07-26T07:53:44.502Z,7.03
2017-07-26T07:56:12.646Z,6.63
2017-07-26T07:58:40.799Z,7.77
2017-07-26T08:01:09.444Z,6.40
2017-07-26T08:03:37.551Z,5.90
2017-07-26T08:06:05.726Z,6.40
2017-07-26T08:08:33.919Z,6.80
2017-07-26T08:11:02.059Z,7.10
2017-07-26T08:13:30.225Z,5.90
2017-07-26T08:15:58.352Z,6.50
2017-07-26T08:18:26.514Z,6.10
2017-07-26T08:20:54.686Z,6.80
2017-07-26T08:23:22.799Z,6.40
2017-07-26T08:25:50.974Z,7.20
2017-07-26T08:28:19.130Z,5.60
2017-07-26T08:30:47.271Z,5.77
2017-07-26T08:33:16.170Z,6.37
2017-07-26T08:35:44.343Z,6.57
2017-07-26T08:38:12.556Z,6.40
2017-07-26T08:40:40.735Z,6.67
2017-07-26T08:43:08.889Z,5.40
2017-07-26T08:45:37.065Z,6.27
2017-07-26T08:48:05.953Z,6.57
2017-07-26T08:50:34.122Z,7.13
2017-07-26T08:53:02.290Z,6.00
2017-07-26T08:55:30.436Z,6.40
2017-07-26T08:57:58.587Z,7.57
2017-07-26T09:00:26.722Z,6.67
2017-07-26T09:02:54.861Z,7.23
2017-07-26T09:05:23.008Z,6.27
2017-07-26T09:07:51.204Z,6.03
2017-07-26T09:10:19.389Z,6.70
2017-07-26T09:12:47.629Z,7.40
2017-07-26T09:15:15.759Z,6.13
2017-07-26T09:17:43.902Z,6.40
2017-07-26T09:20:12.066Z,6.20
2017-07-26T09:22:40.189Z,7.70
2017-07-26T09:25:08.338Z,6.50
2017-07-26T09:27:36.486Z,6.63
2017-07-26T09:30:04.633Z,6.83
2017-07-26T09:32:32.764Z,6.50
2017-07-26T09:35:00.933Z,6.47
2017-07-26T09:37:29.094Z,6.50
2017-07-26T09:39:59.593Z,6.67
2017-07-26T09:42:27.795Z,6.87
2017-07-26T09:44:55.925Z,6.20
2017-07-26T09:47:24.050Z,6.57
2017-07-26T09:49:52.224Z,6.53
2017-07-26T09:52:20.345Z,6.50
2017-07-26T09:54:49.226Z,5.87
2017-07-26T09:57:17.401Z,6.77
2017-07-26T09:59:45.560Z,6.30
2017-07-26T10:02:13.710Z,6.47
2017-07-26T10:04:41.883Z,7.07
2017-07-26T10:07:10.028Z,6.80
2017-07-26T10:09:38.179Z,7.03
2017-07-26T10:12:07.446Z,7.60
2017-07-26T10:14:36.267Z,7.37
2017-07-26T10:17:04.411Z,7.37
2017-07-26T10:19:33.377Z,7.60
2017-07-26T10:22:01.498Z,7.40
2017-07-26T10:24:29.620Z,6.70
2017-07-26T10:26:57.775Z,7.07
2017-07-26T10:29:25.946Z,6.20
2017-07-26T10:31:54.091Z,7.10
2017-07-26T10:34:22.258Z,6.53
2017-07-26T10:36:50.405Z,6.50
2017-07-26T10:39:18.551Z,7.30
2017-07-26T10:41:46.732Z,7.37
2017-07-26T10:44:14.912Z,6.80
2017-07-26T10:46:43.049Z,7.17
2017-07-26T10:49:11.958Z,6.50
2017-07-26T10:51:40.089Z,5.80
2017-07-26T10:54:08.269Z,6.60
2017-07-26T10:56:37.156Z,6.60
2017-07-26T10:59:05.306Z,6.60
2017-07-26T11:01:33.457Z,7.30
2017-07-26T11:04:02.349Z,6.53
2017-07-26T11:06:30.497Z,6.23
2017-07-26T11:08:58.665Z,6.70
2017-07-26T11:11:27.574Z,7.10
2017-07-26T11:13:55.756Z,7.30
2017-07-26T11:16:23.917Z,10.23
2017-07-26T11:18:52.054Z,7.07
2017-07-26T11:21:20.913Z,7.13
2017-07-26T11:23:49.081Z,7.00
2017-07-26T11:26:17.208Z,7.40
2017-07-26T11:28:45.366Z,6.80
2017-07-26T11:31:13.568Z,6.73
2017-07-26T11:33:41.704Z,7.20
2017-07-26T11:36:09.865Z,7.60
2017-07-26T11:38:38.028Z,6.70
2017-07-26T11:41:06.145Z,7.13
2017-07-26T11:43:34.285Z,6.70
2017-07-26T11:46:02.446Z,6.80
2017-07-26T11:48:30.564Z,7.03
2017-07-26T11:50:58.691Z,6.60
2017-07-26T11:53:26.899Z,5.40
2017-07-26T11:55:55.047Z,6.50
2017-07-26T11:58:23.196Z,6.50
2017-07-26T12:00:51.362Z,6.80
2017-07-26T12:03:19.472Z,6.73
2017-07-26T12:05:47.626Z,6.80
2017-07-26T12:08:15.948Z,6.90
2017-07-26T12:10:44.074Z,6.03
2017-07-26T12:13:12.196Z,6.50
2017-07-26T12:15:40.374Z,6.50
2017-07-26T12:18:08.498Z,6.97
2017-07-26T12:20:36.650Z,6.20
2017-07-26T12:23:04.824Z,6.23
2017-07-26T12:25:32.967Z,6.70
2017-07-26T12:28:01.893Z,5.93
2017-07-26T12:30:30.848Z,6.30
2017-07-26T12:32:58.972Z,6.10
2017-07-26T12:35:27.117Z,5.90
2017-07-26T12:37:55.310Z,6.33
2017-07-26T12:40:23.435Z,6.13
2017-07-26T12:42:51.576Z,7.13
2017-07-26T12:45:19.756Z,6.03
2017-07-26T12:47:47.927Z,6.23
2017-07-26T12:50:16.079Z,6.33
2017-07-26T12:52:44.255Z,6.23
2017-07-26T12:55:12.380Z,5.93
2017-07-26T12:57:41.355Z,6.73
2017-07-26T13:00:09.537Z,5.87
2017-07-26T13:02:37.709Z,6.13
2017-07-26T13:05:05.853Z,7.30
2017-07-26T13:07:34.030Z,6.10
2017-07-26T13:10:02.158Z,5.63
2017-07-26T13:12:30.292Z,5.70
2017-07-26T13:14:58.458Z,6.07
2017-07-26T13:17:26.601Z,6.57
2017-07-26T13:19:54.741Z,6.87
2017-07-26T13:22:22.910Z,6.87
2017-07-26T13:24:51.051Z,6.60
2017-07-26T13:27:19.213Z,6.10
2017-07-26T13:29:47.392Z,5.70
2017-07-26T13:32:15.503Z,6.17
2017-07-26T13:34:43.632Z,5.20
2017-07-26T13:37:11.818Z,7.10
2017-07-26T13:39:39.991Z,7.40
2017-07-26T13:42:08.463Z,6.03
2017-07-26T13:44:36.616Z,6.03
2017-07-26T13:47:04.765Z,8.80
2017-07-26T13:49:32.957Z,14.13
2017-07-26T13:52:01.163Z,14.60
2017-07-26T13:54:29.336Z,20.27
2017-07-26T13:56:57.512Z,15.80
2017-07-26T13:59:25.708Z,19.47
2017-07-26T14:01:54.317Z,6.87
2017-07-26T14:04:22.512Z,13.73
2017-07-26T14:06:51.653Z,25.37
2017-07-26T14:09:19.864Z,13.80
2017-07-26T14:11:48.046Z,13.80
2017-07-26T14:14:16.197Z,13.47
2017-07-26T14:16:44.396Z,10.00
2017-07-26T14:19:12.613Z,9.83
2017-07-26T14:21:40.821Z,9.70
2017-07-26T14:24:08.993Z,8.27
2017-07-26T14:26:37.135Z,7.20
2017-07-26T14:29:05.289Z,8.27
2017-07-26T14:31:34.219Z,6.93
2017-07-26T14:34:02.382Z,8.30
2017-07-26T14:36:30.560Z,6.37
2017-07-26T14:38:58.806Z,6.33
2017-07-26T14:41:27.553Z,6.47
2017-07-26T14:43:55.694Z,5.53
2017-07-26T14:46:23.926Z,6.77
2017-07-26T14:48:52.094Z,5.80
2017-07-26T14:51:20.268Z,6.63
2017-07-26T14:53:48.432Z,5.67
2017-07-26T14:56:16.586Z,6.17
2017-07-26T14:58:45.726Z,6.30
2017-07-26T15:01:14.652Z,5.80
2017-07-26T15:03:42.824Z,5.80
2017-07-26T15:06:10.999Z,6.17
2017-07-26T15:08:39.214Z,6.20
2017-07-26T15:11:07.361Z,7.27
2017-07-26T15:13:35.521Z,9.60
2017-07-26T15:16:03.799Z,18.23
2017-07-26T15:18:32.000Z,26.87
2017-07-26T15:21:00.159Z,19.93
2017-07-26T15:23:28.337Z,17.30
2017-07-26T15:25:56.545Z,16.10
2017-07-26T15:28:24.672Z,53.17
2017-07-26T15:30:52.843Z,23.20
2017-07-26T15:33:20.998Z,12.70
2017-07-26T15:35:49.142Z,34.70
2017-07-26T15:38:17.265Z,22.50
2017-07-26T15:40:46.000Z,17.80
2017-07-26T15:43:14.212Z,12.07
2017-07-26T15:45:42.352Z,9.47
2017-07-26T15:48:11.577Z,9.00
2017-07-26T15:50:39.717Z,12.27
2017-07-26T15:53:08.638Z,10.60
2017-07-26T15:55:36.812Z,12.93
2017-07-26T15:58:04.994Z,11.23
2017-07-26T16:00:33.918Z,8.10
2017-07-26T16:03:02.845Z,8.70
2017-07-26T16:05:31.013Z,10.60
2017-07-26T16:07:59.135Z,7.43
2017-07-26T16:10:27.312Z,8.13
2017-07-26T16:12:55.502Z,6.63
2017-07-26T16:15:23.648Z,6.73
2017-07-26T16:17:52.551Z,7.30
2017-07-26T16:20:21.585Z,6.77
2017-07-26T16:22:49.721Z,6.60
2017-07-26T16:25:17.837Z,6.73
2017-07-26T16:27:46.013Z,7.50
2017-07-26T16:30:14.137Z,6.60
2017-07-26T16:32:43.030Z,6.57
2017-07-26T16:35:11.192Z,6.60
2017-07-26T16:37:39.347Z,23.13
2017-07-26T16:40:07.487Z,23.27
2017-07-26T16:42:35.660Z,18.70
2017-07-26T16:45:03.784Z,19.47
2017-07-26T16:47:33.812Z,12.53
2017-07-26T16:50:01.975Z,15.23
2017-07-26T16:52:30.129Z,23.13
2017-07-26T16:54:58.282Z,62.57
2017-07-26T16:57:26.468Z,25.20
2017-07-26T16:59:54.667Z,53.00
2017-07-26T17:02:22.861Z,92.90
2017-07-26T17:04:51.022Z,30.57
2017-07-26T17:07:19.146Z,47.83
2017-07-26T17:09:47.642Z,29.70
2017-07-26T17:12:15.958Z,31.53
2017-07-26T17:14:44.113Z,14.43
2017-07-26T17:17:12.284Z,14.17
2017-07-26T17:19:40.425Z,12.27
2017-07-26T17:22:08.560Z,13.33
2017-07-26T17:24:36.707Z,11.63
2017-07-26T17:27:04.835Z,9.20
2017-07-26T17:29:32.965Z,7.80
2017-07-26T17:32:01.136Z,8.60
2017-07-26T17:34:29.281Z,8.43
2017-07-26T17:36:57.395Z,8.20
2017-07-26T17:39:25.547Z,8.20
2017-07-26T17:41:53.651Z,7.00
2017-07-26T17:44:21.813Z,7.43
2017-07-26T17:46:49.963Z,7.70
2017-07-26T17:49:18.072Z,7.43
2017-07-26T17:51:46.196Z,6.80
2017-07-26T17:54:14.389Z,7.33
2017-07-26T17:56:42.520Z,7.57
2017-07-26T17:59:10.689Z,6.97
2017-07-26T18:01:38.835Z,7.83
2017-07-26T18:04:06.950Z,6.90
2017-07-26T18:06:35.114Z,7.50
2017-07-26T18:09:03.259Z,7.00
2017-07-26T18:11:31.399Z,8.70
2017-07-26T18:13:59.537Z,8.17
2017-07-26T18:16:27.694Z,7.10
2017-07-26T18:18:56.594Z,7.00
2017-07-26T18:21:24.785Z,7.07
2017-07-26T18:23:53.787Z,8.13
2017-07-26T18:26:22.064Z,6.83
2017-07-26T18:28:50.198Z,8.50
2017-07-26T18:31:18.352Z,7.00
2017-07-26T18:33:46.493Z,8.47
2017-07-26T18:36:14.619Z,8.30
2017-07-26T18:38:42.782Z,6.90
2017-07-26T18:41:11.766Z,8.50
2017-07-26T18:43:40.032Z,7.57
2017-07-26T18:46:08.220Z,8.83
2017-07-26T18:48:36.383Z,7.33
2017-07-26T18:51:04.527Z,7.37
2017-07-26T18:53:32.680Z,9.90
2017-07-26T18:56:00.818Z,8.63
2017-07-26T18:58:28.958Z,7.93
2017-07-26T19:00:58.803Z,8.43
2017-07-26T19:03:26.975Z,9.40
2017-07-26T19:05:55.872Z,9.67
2017-07-26T19:08:24.026Z,7.57
2017-07-26T19:10:52.155Z,8.73
2017-07-26T19:13:20.362Z,8.70
2017-07-26T19:15:49.268Z,9.40
2017-07-26T19:18:18.184Z,8.97
2017-07-26T19:20:46.359Z,9.77
2017-07-26T19:23:14.500Z,8.30
2017-07-26T19:25:42.632Z,8.20
2017-07-26T19:28:10.921Z,9.07
2017-07-26T19:30:39.048Z,8.70
2017-07-26T19:33:07.180Z,8.33
2017-07-26T19:35:35.328Z,8.83
2017-07-26T19:38:03.465Z,9.03
2017-07-26T19:40:31.590Z,9.20
2017-07-26T19:42:59.754Z,9.33
2017-07-26T19:45:27.915Z,8.70
2017-07-26T19:47:56.818Z,8.90
2017-07-26T19:50:24.967Z,9.33
2017-07-26T19:52:53.827Z,9.00
2017-07-26T19:55:21.988Z,9.03
2017-07-26T19:57:50.162Z,9.70
2017-07-26T20:00:18.464Z,8.53
2017-07-26T20:02:46.633Z,8.10
2017-07-26T20:05:14.804Z,10.73
2017-07-26T20:07:42.913Z,8.80
2017-07-26T20:10:11.042Z,9.03
2017-07-26T20:12:39.200Z,8.77
2017-07-26T20:15:07.405Z,8.23
2017-07-26T20:17:35.642Z,8.53
2017-07-26T20:20:03.782Z,8.67
2017-07-26T20:22:32.796Z,8.93
2017-07-26T20:25:00.921Z,9.40
2017-07-26T20:27:29.962Z,8.60
2017-07-26T20:29:58.102Z,8.70
2017-07-26T20:32:26.221Z,9.80
2017-07-26T20:34:54.373Z,8.73
2017-07-26T20:37:23.202Z,7.30
2017-07-26T20:39:51.349Z,8.50
2017-07-26T20:42:19.540Z,8.90
2017-07-26T20:44:47.689Z,8.50
2017-07-26T20:47:15.867Z,9.80
2017-07-26T20:49:44.059Z,10.60
2017-07-26T20:52:12.178Z,10.73
2017-07-26T20:54:40.345Z,8.73
2017-07-26T20:57:08.576Z,10.17
2017-07-26T20:59:36.711Z,10.30
2017-07-26T21:02:05.919Z,10.90
2017-07-26T21:04:34.044Z,11.03
2017-07-26T21:07:02.188Z,10.87
2017-07-26T21:09:30.339Z,10.97
2017-07-26T21:11:58.489Z,10.10
2017-07-26T21:14:26.659Z,10.23
2017-07-26T21:16:54.824Z,10.77
2017-07-26T21:19:23.049Z,9.40
2017-07-26T21:21:51.992Z,9.77
2017-07-26T21:24:20.124Z,8.87
2017-07-26T21:26:48.258Z,9.00
2017-07-26T21:29:16.437Z,8.10
2017-07-26T21:31:45.071Z,9.83
2017-07-26T21:34:13.254Z,9.03
2017-07-26T21:36:41.412Z,8.70
2017-07-26T21:39:09.522Z,8.60
2017-07-26T21:41:38.095Z,8.83
2017-07-26T21:44:06.300Z,10.10
2017-07-26T21:46:34.465Z,10.03
2017-07-26T21:49:02.591Z,7.77
2017-07-26T21:51:30.746Z,8.47
2017-07-26T21:53:58.897Z,9.50
2017-07-26T21:56:27.123Z,9.53
2017-07-26T21:58:55.284Z,8.40
2017-07-26T22:01:23.464Z,8.60
2017-07-26T22:03:51.594Z,9.10
2017-07-26T22:06:19.752Z,9.13
2017-07-26T22:08:47.906Z,10.53
2017-07-26T22:11:16.838Z,8.50
2017-07-26T22:13:45.402Z,8.30
2017-07-26T22:16:13.559Z,8.70
2017-07-26T22:18:41.712Z,9.27
2017-07-26T22:21:09.885Z,9.20
2017-07-26T22:23:38.028Z,8.67
2017-07-26T22:26:06.186Z,8.30
2017-07-26T22:28:34.353Z,8.03
2017-07-26T22:31:02.487Z,7.93
2017-07-26T22:33:30.644Z,8.57
2017-07-26T22:35:58.791Z,9.10
2017-07-26T22:38:26.944Z,8.20
2017-07-26T22:40:55.092Z,8.03
2017-07-26T22:43:23.256Z,8.50
2017-07-26T22:45:51.427Z,8.00
2017-07-26T22:48:19.578Z,7.30
2017-07-26T22:50:47.744Z,7.40
2017-07-26T22:53:17.254Z,7.20
2017-07-26T22:55:45.478Z,5.90
2017-07-26T22:58:13.684Z,6.50
2017-07-26T23:00:41.802Z,6.33
2017-07-26T23:03:09.948Z,6.60
2017-07-26T23:05:38.110Z,5.57
2017-07-26T23:08:06.241Z,6.17
2017-07-26T23:10:34.390Z,6.40
2017-07-26T23:13:02.543Z,6.30
2017-07-26T23:15:31.561Z,6.60
2017-07-26T23:17:59.721Z,5.10
2017-07-26T23:20:27.887Z,6.23
2017-07-26T23:22:56.055Z,6.43
2017-07-26T23:25:24.190Z,6.20
2017-07-26T23:27:52.349Z,6.27
2017-07-26T23:30:20.932Z,5.40
2017-07-26T23:32:49.065Z,5.57
2017-07-26T23:35:17.369Z,5.80
2017-07-26T23:37:45.522Z,5.87
2017-07-26T23:40:13.644Z,6.20
2017-07-26T23:42:41.825Z,6.10
2017-07-26T23:45:09.983Z,6.80
2017-07-26T23:47:38.107Z,6.67
2017-07-26T23:50:06.303Z,5.90
2017-07-26T23:52:35.420Z,6.23
2017-07-26T23:55:03.527Z,6.10
2017-07-26T23:57:31.803Z,7.50
2017-07-26T23:59:59.969Z,7.77
